Time;durP1;ratioP1;P1;durP2;ratioP2;P2;SDS_P1;SDS_P2;PMS_P1;PMS_P2;Temp;Humidity;BMP_temperature;BMP_pressure;BME280_temperature;BME280_humidity;BME280_pressure;Samples;Min_cycle;Max_cycle;Signal;HPM_P1;HPM_P2
2022/07/31 00:00:24;;;;;;;4.20;2.60;;;;;;;;;;5006444;28;20046;-78
2022/07/31 00:02:51;;;;;;;7.18;3.78;;;;;;;;;;5007940;28;20046;-78
2022/07/31 00:05:18;;;;;;;9.25;3.75;;;;;;;;;;5005495;28;20050;-78
2022/07/31 00:07:45;;;;;;;9.55;3.67;;;;;;;;;;5003997;28;20054;-78
2022/07/31 00:10:13;;;;;;;10.00;4.60;;;;;;;;;;5008041;28;20057;-78
2022/07/31 00:12:40;;;;;;;12.00;3.38;;;;;;;;;;5007316;28;20051;-78
2022/07/31 00:15:09;;;;;;;6.25;3.50;;;;;;;;;;5006948;28;20046;-77
2022/07/31 00:17:39;;;;;;;8.95;3.83;;;;;;;;;;5005531;28;20057;-78
2022/07/31 00:20:07;;;;;;;7.18;3.70;;;;;;;;;;5006669;28;21182;-78
2022/07/31 00:22:34;;;;;;;8.52;4.18;;;;;;;;;;5007973;28;20177;-78
2022/07/31 00:25:01;;;;;;;7.93;4.07;;;;;;;;;;5006484;28;20061;-78
2022/07/31 00:27:29;;;;;;;8.45;3.80;;;;;;;;;;5006211;28;20101;-78
2022/07/31 00:29:56;;;;;;;9.95;4.47;;;;;;;;;;5006260;28;20058;-79
2022/07/31 00:32:24;;;;;;;9.10;4.60;;;;;;;;;;5013046;28;20055;-78
2022/07/31 00:34:51;;;;;;;9.57;4.55;;;;;;;;;;5004722;28;20105;-78
2022/07/31 00:37:18;;;;;;;13.88;4.50;;;;;;;;;;5006183;28;20137;-78
2022/07/31 00:39:46;;;;;;;6.63;4.15;;;;;;;;;;5006299;28;20157;-77
2022/07/31 00:42:20;;;;;;;7.53;3.70;;;;;;;;;;5006522;28;20065;-78
2022/07/31 00:44:48;;;;;;;9.18;4.68;;;;;;;;;;5004384;28;20050;-78
2022/07/31 00:47:16;;;;;;;6.72;4.25;;;;;;;;;;5003980;28;20081;-78
2022/07/31 00:49:50;;;;;;;10.68;4.50;;;;;;;;;;5005923;28;20050;-78
2022/07/31 00:52:17;;;;;;;11.23;5.43;;;;;;;;;;5006041;28;20142;-78
2022/07/31 00:54:44;;;;;;;10.60;4.82;;;;;;;;;;5005684;28;20141;-78
2022/07/31 00:57:12;;;;;;;9.77;4.55;;;;;;;;;;5006836;28;20145;-78
2022/07/31 00:59:39;;;;;;;13.23;4.88;;;;;;;;;;4998643;28;20042;-78
2022/07/31 01:02:07;;;;;;;8.40;4.50;;;;;;;;;;5002487;28;20085;-78
2022/07/31 01:04:34;;;;;;;6.30;4.50;;;;;;;;;;5005140;28;20854;-78
2022/07/31 01:07:01;;;;;;;9.80;4.35;;;;;;;;;;5004227;28;20110;-79
2022/07/31 01:09:29;;;;;;;10.63;4.85;;;;;;;;;;5005294;28;20049;-78
2022/07/31 01:11:59;;;;;;;9.75;4.43;;;;;;;;;;5006745;28;20057;-80
2022/07/31 01:14:28;;;;;;;8.95;4.18;;;;;;;;;;5004995;28;20052;-78
2022/07/31 01:16:58;;;;;;;5.18;3.60;;;;;;;;;;5004195;28;20056;-78
2022/07/31 01:19:45;;;;;;;12.52;4.18;;;;;;;;;;5005344;28;20047;-77
2022/07/31 01:22:31;;;;;;;5.32;3.72;;;;;;;;;;5005208;28;20051;-78
2022/07/31 01:25:07;;;;;;;9.23;3.75;;;;;;;;;;5005040;28;20102;-78
2022/07/31 01:27:53;;;;;;;12.38;4.05;;;;;;;;;;5002294;28;20137;-78
2022/07/31 01:30:22;;;;;;;6.68;3.50;;;;;;;;;;5004844;28;20057;-78
2022/07/31 01:32:54;;;;;;;7.60;4.00;;;;;;;;;;5001798;28;20062;-78
2022/07/31 01:35:29;;;;;;;6.00;4.03;;;;;;;;;;5006520;28;20073;-78
2022/07/31 01:38:00;;;;;;;7.03;3.92;;;;;;;;;;5013366;28;20054;-79
2022/07/31 01:40:34;;;;;;;13.02;4.50;;;;;;;;;;5020598;28;20065;-78
2022/07/31 01:43:07;;;;;;;8.75;4.40;;;;;;;;;;5004175;28;20061;-78
2022/07/31 01:45:37;;;;;;;6.55;4.32;;;;;;;;;;5003315;28;20062;-78
2022/07/31 01:48:05;;;;;;;10.63;4.60;;;;;;;;;;5004771;28;20058;-78
2022/07/31 01:50:33;;;;;;;7.85;4.20;;;;;;;;;;5010169;28;20054;-78
2022/07/31 01:53:12;;;;;;;8.55;3.90;;;;;;;;;;5000871;28;20062;-78
2022/07/31 01:55:41;;;;;;;6.18;3.78;;;;;;;;;;5006532;28;20061;-78
2022/07/31 01:58:29;;;;;;;5.32;3.80;;;;;;;;;;5005549;28;20052;-78
2022/07/31 02:00:58;;;;;;;7.95;4.10;;;;;;;;;;5002797;28;20823;-78
2022/07/31 02:03:27;;;;;;;7.10;3.88;;;;;;;;;;5006970;28;20058;-78
2022/07/31 02:06:15;;;;;;;8.30;4.15;;;;;;;;;;5001896;28;20058;-78
2022/07/31 02:08:45;;;;;;;9.13;4.40;;;;;;;;;;5004786;28;20046;-78
2022/07/31 02:11:13;;;;;;;8.07;4.50;;;;;;;;;;5001665;28;20285;-78
2022/07/31 02:13:40;;;;;;;7.75;4.13;;;;;;;;;;5005217;28;20097;-78
2022/07/31 02:16:08;;;;;;;10.43;4.20;;;;;;;;;;5004087;28;21035;-78
2022/07/31 02:18:36;;;;;;;7.38;3.80;;;;;;;;;;5002028;28;20060;-78
2022/07/31 02:21:03;;;;;;;8.00;4.38;;;;;;;;;;5001301;28;20050;-78
2022/07/31 02:23:33;;;;;;;7.80;4.32;;;;;;;;;;5005984;28;20052;-78
2022/07/31 02:26:03;;;;;;;8.20;4.35;;;;;;;;;;5019510;28;20046;-78
2022/07/31 02:28:31;;;;;;;6.78;4.18;;;;;;;;;;5018897;28;20060;-78
2022/07/31 02:31:00;;;;;;;8.68;4.32;;;;;;;;;;5015808;28;20057;-78
2022/07/31 02:33:30;;;;;;;5.72;4.22;;;;;;;;;;5021381;28;20424;-78
2022/07/31 02:35:58;;;;;;;6.85;3.75;;;;;;;;;;5018887;28;20062;-78
2022/07/31 02:38:26;;;;;;;6.53;4.00;;;;;;;;;;5020483;28;20056;-78
2022/07/31 02:40:55;;;;;;;5.32;4.00;;;;;;;;;;5020000;28;20055;-78
2022/07/31 02:43:24;;;;;;;8.00;3.80;;;;;;;;;;5021025;28;20057;-78
2022/07/31 02:45:51;;;;;;;6.90;4.28;;;;;;;;;;5017448;28;20130;-78
2022/07/31 02:48:18;;;;;;;9.75;4.15;;;;;;;;;;5017546;28;20053;-78
2022/07/31 02:50:46;;;;;;;5.95;4.35;;;;;;;;;;5017164;28;20497;-78
2022/07/31 02:53:13;;;;;;;9.25;4.65;;;;;;;;;;5020986;28;20042;-78
2022/07/31 02:55:42;;;;;;;6.97;4.47;;;;;;;;;;5020043;28;20061;-78
2022/07/31 02:58:10;;;;;;;8.60;3.70;;;;;;;;;;5017311;28;20100;-78
2022/07/31 03:00:37;;;;;;;9.88;4.05;;;;;;;;;;5019234;28;20050;-78
2022/07/31 03:03:04;;;;;;;10.60;4.75;;;;;;;;;;5024366;28;20169;-78
2022/07/31 03:05:32;;;;;;;7.80;5.13;;;;;;;;;;5019242;28;20196;-78
2022/07/31 03:07:59;;;;;;;7.32;5.10;;;;;;;;;;5019409;28;20050;-79
2022/07/31 03:10:26;;;;;;;11.27;5.22;;;;;;;;;;5032196;28;20190;-78
2022/07/31 03:12:54;;;;;;;10.90;5.53;;;;;;;;;;5017143;28;20520;-78
2022/07/31 03:15:25;;;;;;;9.40;4.45;;;;;;;;;;5019300;28;20058;-78
2022/07/31 03:17:53;;;;;;;11.00;5.18;;;;;;;;;;5014359;28;20054;-78
2022/07/31 03:20:23;;;;;;;11.10;5.53;;;;;;;;;;5016816;28;20133;-78
2022/07/31 03:22:50;;;;;;;9.93;5.57;;;;;;;;;;5016056;28;20079;-78
2022/07/31 03:25:18;;;;;;;8.73;6.07;;;;;;;;;;5018283;28;20530;-78
2022/07/31 03:27:49;;;;;;;12.38;5.70;;;;;;;;;;5013555;28;20082;-78
2022/07/31 03:30:26;;;;;;;9.32;5.47;;;;;;;;;;5035951;28;20144;-78
2022/07/31 03:32:54;;;;;;;11.25;6.10;;;;;;;;;;5019250;28;20080;-78
2022/07/31 03:35:22;;;;;;;11.55;5.28;;;;;;;;;;5015035;28;20056;-77
2022/07/31 03:37:50;;;;;;;9.48;6.22;;;;;;;;;;5023862;28;20050;-78
2022/07/31 03:40:17;;;;;;;8.25;6.05;;;;;;;;;;5017785;28;20046;-78
2022/07/31 03:42:44;;;;;;;7.57;5.72;;;;;;;;;;5015416;28;20057;-77
2022/07/31 03:45:13;;;;;;;9.73;6.15;;;;;;;;;;5024203;28;20168;-78
2022/07/31 03:47:40;;;;;;;12.95;5.95;;;;;;;;;;5018443;28;20831;-78
2022/07/31 03:50:08;;;;;;;10.40;6.38;;;;;;;;;;5023548;28;20847;-78
2022/07/31 03:52:35;;;;;;;10.35;6.18;;;;;;;;;;5022322;28;20084;-78
2022/07/31 03:55:02;;;;;;;10.93;6.65;;;;;;;;;;5023067;28;20114;-78
2022/07/31 03:57:30;;;;;;;10.32;6.82;;;;;;;;;;5026550;28;20046;-78
2022/07/31 04:00:01;;;;;;;12.65;6.95;;;;;;;;;;5021569;28;20054;-78
2022/07/31 04:02:29;;;;;;;11.93;6.70;;;;;;;;;;5031244;28;20157;-78
2022/07/31 04:04:58;;;;;;;10.45;6.20;;;;;;;;;;5015922;28;20172;-78
2022/07/31 04:07:25;;;;;;;9.23;5.70;;;;;;;;;;5021497;28;20061;-78
2022/07/31 04:09:53;;;;;;;12.38;6.20;;;;;;;;;;5022028;28;20073;-78
2022/07/31 04:12:20;;;;;;;9.52;6.32;;;;;;;;;;5019119;28;20500;-78
2022/07/31 04:14:48;;;;;;;7.63;5.30;;;;;;;;;;5019487;28;20105;-78
2022/07/31 04:17:15;;;;;;;8.75;5.50;;;;;;;;;;5025201;28;20046;-78
2022/07/31 04:19:42;;;;;;;11.40;5.78;;;;;;;;;;5015439;28;20050;-78
2022/07/31 04:22:10;;;;;;;11.15;5.13;;;;;;;;;;5019813;28;20046;-78
2022/07/31 04:24:37;;;;;;;8.48;4.88;;;;;;;;;;5017798;28;20085;-78
2022/07/31 04:27:04;;;;;;;8.75;4.72;;;;;;;;;;5017733;28;20061;-78
2022/07/31 04:29:39;;;;;;;9.35;5.07;;;;;;;;;;5011301;28;20058;-79
2022/07/31 04:32:09;;;;;;;10.77;5.40;;;;;;;;;;5022259;28;20050;-78
2022/07/31 04:34:36;;;;;;;11.20;5.35;;;;;;;;;;5018451;28;20042;-77
2022/07/31 04:37:03;;;;;;;15.25;7.55;;;;;;;;;;5019410;28;20543;-78
2022/07/31 04:39:32;;;;;;;13.95;5.97;;;;;;;;;;5022686;28;20148;-78
2022/07/31 04:41:59;;;;;;;10.85;6.32;;;;;;;;;;5012672;28;20060;-78
2022/07/31 04:44:27;;;;;;;11.82;6.55;;;;;;;;;;5015585;28;20054;-78
2022/07/31 04:47:01;;;;;;;10.88;6.13;;;;;;;;;;5016369;28;20547;-78
2022/07/31 04:49:30;;;;;;;11.18;6.57;;;;;;;;;;5035561;28;20047;-78
2022/07/31 04:51:58;;;;;;;14.75;7.35;;;;;;;;;;5016760;28;20505;-78
2022/07/31 04:54:25;;;;;;;12.80;6.88;;;;;;;;;;5016900;28;20050;-78
2022/07/31 04:56:53;;;;;;;13.00;7.07;;;;;;;;;;5013957;28;20055;-78
2022/07/31 04:59:21;;;;;;;11.77;6.97;;;;;;;;;;5016356;28;20523;-78
2022/07/31 05:01:49;;;;;;;15.10;7.25;;;;;;;;;;5022524;28;20173;-78
2022/07/31 05:04:16;;;;;;;16.20;7.50;;;;;;;;;;5022991;28;20050;-78
2022/07/31 05:06:45;;;;;;;16.25;7.53;;;;;;;;;;5012934;28;20145;-78
2022/07/31 05:09:14;;;;;;;15.10;7.35;;;;;;;;;;5016598;28;20054;-78
2022/07/31 05:11:46;;;;;;;12.47;8.40;;;;;;;;;;5014421;28;20157;-78
2022/07/31 05:14:14;;;;;;;16.02;7.18;;;;;;;;;;5014132;28;20555;-78
2022/07/31 05:16:41;;;;;;;13.35;7.47;;;;;;;;;;5019876;28;20046;-78
2022/07/31 05:19:08;;;;;;;14.43;7.57;;;;;;;;;;5014984;28;20141;-78
2022/07/31 05:21:40;;;;;;;14.35;8.05;;;;;;;;;;5019227;28;20118;-76
2022/07/31 05:24:28;;;;;;;16.35;7.35;;;;;;;;;;5014193;28;20054;-78
2022/07/31 05:26:59;;;;;;;14.60;7.80;;;;;;;;;;5012922;28;20060;-77
2022/07/31 05:29:27;;;;;;;11.57;7.25;;;;;;;;;;5016937;28;20144;-78
2022/07/31 05:31:55;;;;;;;13.23;7.18;;;;;;;;;;5022817;28;20192;-78
2022/07/31 05:34:28;;;;;;;13.83;7.00;;;;;;;;;;5021657;28;20058;-78
2022/07/31 05:36:56;;;;;;;9.25;6.72;;;;;;;;;;5018810;28;20100;-77
2022/07/31 05:39:24;;;;;;;15.45;6.95;;;;;;;;;;5022871;28;20050;-78
2022/07/31 05:41:51;;;;;;;13.85;7.22;;;;;;;;;;5021428;28;20046;-78
2022/07/31 05:44:19;;;;;;;16.45;7.35;;;;;;;;;;5018462;28;20093;-78
2022/07/31 05:46:46;;;;;;;13.98;6.80;;;;;;;;;;5018283;28;20692;-78
2022/07/31 05:49:14;;;;;;;11.57;7.20;;;;;;;;;;5023393;28;20139;-79
2022/07/31 05:51:45;;;;;;;16.80;6.43;;;;;;;;;;5018453;28;20046;-78
2022/07/31 05:54:12;;;;;;;14.60;8.18;;;;;;;;;;5019059;28;20050;-79
2022/07/31 05:56:40;;;;;;;15.85;8.23;;;;;;;;;;5024292;28;20526;-78
2022/07/31 05:59:08;;;;;;;13.55;7.60;;;;;;;;;;5020911;28;20060;-79
2022/07/31 06:01:36;;;;;;;14.48;7.57;;;;;;;;;;5020460;28;20133;-79
2022/07/31 06:04:04;;;;;;;14.88;7.88;;;;;;;;;;5015002;28;20054;-78
2022/07/31 06:06:34;;;;;;;15.52;8.30;;;;;;;;;;5022468;28;20050;-78
2022/07/31 06:09:02;;;;;;;15.30;8.48;;;;;;;;;;5019495;28;20133;-78
2022/07/31 06:11:31;;;;;;;14.07;8.30;;;;;;;;;;5038942;28;20099;-77
2022/07/31 06:13:58;;;;;;;15.80;8.73;;;;;;;;;;5037557;28;20919;-77
2022/07/31 06:16:26;;;;;;;15.55;8.88;;;;;;;;;;5020783;28;20050;-78
2022/07/31 06:18:53;;;;;;;16.50;9.02;;;;;;;;;;5024232;28;20050;-78
2022/07/31 06:21:21;;;;;;;14.75;8.75;;;;;;;;;;5025918;28;20061;-78
2022/07/31 06:23:47;;;;;;;14.98;9.10;;;;;;;;;;5023337;28;20042;-78
2022/07/31 06:26:14;;;;;;;16.95;8.57;;;;;;;;;;5026903;28;20046;-78
2022/07/31 06:28:45;;;;;;;20.25;8.15;;;;;;;;;;5021119;28;20109;-78
2022/07/31 06:31:19;;;;;;;14.68;8.40;;;;;;;;;;5020640;28;20049;-79
2022/07/31 06:33:48;;;;;;;13.00;7.95;;;;;;;;;;5034653;28;20043;-78
2022/07/31 06:36:16;;;;;;;16.42;8.82;;;;;;;;;;5022646;28;20089;-79
2022/07/31 06:38:44;;;;;;;13.48;8.48;;;;;;;;;;5016590;28;20062;-78
2022/07/31 06:41:43;;;;;;;15.27;9.13;;;;;;;;;;5019336;28;20078;-78
2022/07/31 06:44:02;;;;;;;13.70;8.23;;;;;;;;;;5012080;28;20065;-78
2022/07/31 06:46:29;;;;;;;15.90;8.93;;;;;;;;;;5018753;28;20050;-78
2022/07/31 06:48:56;;;;;;;15.35;9.63;;;;;;;;;;5027572;28;20046;-78
2022/07/31 06:51:23;;;;;;;16.10;8.95;;;;;;;;;;5019011;28;20054;-79
2022/07/31 06:53:57;;;;;;;15.45;8.38;;;;;;;;;;5021669;28;20050;-78
2022/07/31 06:56:25;;;;;;;16.75;9.25;;;;;;;;;;5015754;28;20061;-79
2022/07/31 06:58:53;;;;;;;15.25;8.40;;;;;;;;;;5024397;28;20500;-79
2022/07/31 07:01:21;;;;;;;12.63;8.30;;;;;;;;;;5015902;28;20078;-78
2022/07/31 07:03:48;;;;;;;22.75;8.85;;;;;;;;;;5021997;28;20056;-78
2022/07/31 07:06:16;;;;;;;13.55;7.80;;;;;;;;;;5018571;28;20042;-78
2022/07/31 07:08:43;;;;;;;14.50;7.93;;;;;;;;;;5020614;28;20045;-78
2022/07/31 07:11:10;;;;;;;18.17;9.02;;;;;;;;;;5012050;28;20057;-78
2022/07/31 07:13:38;;;;;;;15.82;8.65;;;;;;;;;;5036813;28;20141;-77
2022/07/31 07:16:13;;;;;;;14.60;8.38;;;;;;;;;;5018125;28;20050;-78
2022/07/31 07:18:41;;;;;;;15.57;8.98;;;;;;;;;;5014493;28;21106;-78
2022/07/31 07:21:09;;;;;;;15.18;8.45;;;;;;;;;;5016463;28;20137;-79
2022/07/31 07:23:36;;;;;;;19.63;9.20;;;;;;;;;;5016397;28;20430;-79
2022/07/31 07:26:04;;;;;;;16.08;9.00;;;;;;;;;;5016294;28;20496;-79
2022/07/31 07:28:31;;;;;;;16.98;8.80;;;;;;;;;;5020106;28;20046;-79
2022/07/31 07:30:58;;;;;;;18.70;9.80;;;;;;;;;;5012074;28;20061;-78
2022/07/31 07:33:26;;;;;;;17.58;10.18;;;;;;;;;;5020121;28;20050;-78
2022/07/31 07:36:08;;;;;;;19.42;9.70;;;;;;;;;;5013361;28;20055;-78
2022/07/31 07:38:49;;;;;;;18.17;10.63;;;;;;;;;;5018014;28;20148;-78
2022/07/31 07:41:17;;;;;;;20.67;11.45;;;;;;;;;;5012996;28;20046;-79
2022/07/31 07:43:44;;;;;;;23.02;12.02;;;;;;;;;;5014162;28;20061;-78
2022/07/31 07:46:18;;;;;;;22.65;12.30;;;;;;;;;;5018300;28;20054;-79
2022/07/31 07:48:45;;;;;;;22.15;12.43;;;;;;;;;;5021660;28;20054;-79
2022/07/31 07:51:13;;;;;;;21.35;11.25;;;;;;;;;;5023274;28;20053;-78
2022/07/31 07:53:40;;;;;;;23.33;12.13;;;;;;;;;;5020988;28;20050;-77
2022/07/31 07:56:07;;;;;;;21.17;12.55;;;;;;;;;;5022770;28;20479;-78
2022/07/31 07:58:34;;;;;;;23.05;12.75;;;;;;;;;;5015896;28;20420;-77
2022/07/31 08:01:02;;;;;;;23.15;12.63;;;;;;;;;;5019214;28;20050;-78
2022/07/31 08:03:29;;;;;;;23.52;12.55;;;;;;;;;;5017777;28;20084;-76
2022/07/31 08:06:17;;;;;;;20.48;12.73;;;;;;;;;;5018535;28;20867;-78
2022/07/31 08:08:44;;;;;;;22.52;14.32;;;;;;;;;;5018214;28;20046;-78
2022/07/31 08:11:11;;;;;;;23.23;12.30;;;;;;;;;;5015542;28;20495;-79
2022/07/31 08:13:44;;;;;;;23.10;12.80;;;;;;;;;;5018560;28;20057;-78
2022/07/31 08:16:17;;;;;;;21.95;12.95;;;;;;;;;;5023042;28;20476;-78
2022/07/31 08:18:44;;;;;;;27.85;12.68;;;;;;;;;;5018704;28;20049;-79
2022/07/31 08:21:12;;;;;;;20.73;12.65;;;;;;;;;;5018230;28;20046;-80
2022/07/31 08:23:39;;;;;;;20.65;12.32;;;;;;;;;;5018734;28;20084;-79
2022/07/31 08:26:10;;;;;;;23.67;12.70;;;;;;;;;;5019955;28;20050;-80
2022/07/31 08:28:39;;;;;;;25.63;13.37;;;;;;;;;;5017435;28;20077;-79
2022/07/31 08:31:07;;;;;;;28.88;14.45;;;;;;;;;;5018007;28;20053;-79
2022/07/31 08:33:34;;;;;;;24.33;14.88;;;;;;;;;;5018160;28;20065;-78
2022/07/31 08:36:03;;;;;;;28.35;15.77;;;;;;;;;;5022631;28;20050;-77
2022/07/31 08:38:30;;;;;;;28.92;14.98;;;;;;;;;;5020318;28;20056;-77
2022/07/31 08:40:59;;;;;;;29.48;15.38;;;;;;;;;;5020979;28;20795;-78
2022/07/31 08:43:27;;;;;;;29.25;17.50;;;;;;;;;;5020060;28;20096;-77
2022/07/31 08:46:14;;;;;;;33.05;17.50;;;;;;;;;;5013427;28;20058;-79
2022/07/31 08:48:43;;;;;;;32.25;16.27;;;;;;;;;;5025305;28;20056;-78
2022/07/31 08:51:11;;;;;;;38.63;18.67;;;;;;;;;;5023055;28;20050;-78
2022/07/31 08:53:38;;;;;;;32.58;18.25;;;;;;;;;;5013548;28;20129;-78
2022/07/31 08:56:05;;;;;;;29.05;17.02;;;;;;;;;;5015425;28;20056;-78
2022/07/31 08:58:33;;;;;;;34.72;17.58;;;;;;;;;;5023647;28;20046;-77
2022/07/31 09:01:07;;;;;;;37.60;19.77;;;;;;;;;;5011342;28;20058;-77
2022/07/31 09:03:35;;;;;;;35.78;17.38;;;;;;;;;;5021952;28;20053;-78
2022/07/31 09:06:03;;;;;;;38.95;19.48;;;;;;;;;;5020346;28;20085;-77
2022/07/31 09:08:35;;;;;;;31.95;17.50;;;;;;;;;;5017578;28;20050;-77
2022/07/31 09:11:07;;;;;;;35.40;19.13;;;;;;;;;;5013678;28;20061;-76
2022/07/31 09:13:34;;;;;;;39.00;20.07;;;;;;;;;;5022463;28;20054;-77
2022/07/31 09:16:03;;;;;;;36.25;18.98;;;;;;;;;;5015312;28;20054;-77
2022/07/31 09:18:31;;;;;;;38.42;19.20;;;;;;;;;;5018147;28;20055;-78
2022/07/31 09:20:59;;;;;;;38.30;20.52;;;;;;;;;;5015572;28;20050;-77
2022/07/31 09:23:28;;;;;;;34.35;19.35;;;;;;;;;;5014765;28;20535;-77
2022/07/31 09:26:00;;;;;;;36.63;19.80;;;;;;;;;;5015660;28;20050;-78
2022/07/31 09:28:34;;;;;;;38.83;20.70;;;;;;;;;;5019845;28;20045;-78
2022/07/31 09:31:03;;;;;;;37.50;20.92;;;;;;;;;;5019510;28;20053;-77
2022/07/31 09:33:31;;;;;;;40.65;19.98;;;;;;;;;;5017782;28;20064;-77
2022/07/31 09:35:59;;;;;;;33.08;20.13;;;;;;;;;;5021335;28;20177;-78
2022/07/31 09:38:34;;;;;;;36.75;21.20;;;;;;;;;;5015993;28;20137;-77
2022/07/31 09:41:15;;;;;;;39.17;21.88;;;;;;;;;;5016666;28;21903;-77
2022/07/31 09:44:03;;;;;;;39.10;20.65;;;;;;;;;;5018462;28;20089;-78
2022/07/31 09:46:50;;;;;;;38.15;22.30;;;;;;;;;;5018849;28;20050;-78
2022/07/31 09:49:18;;;;;;;38.28;21.38;;;;;;;;;;5021161;28;20054;-78
2022/07/31 09:51:47;;;;;;;37.17;20.30;;;;;;;;;;5014543;28;20046;-77
2022/07/31 09:54:25;;;;;;;31.95;20.35;;;;;;;;;;5015804;28;20058;-78
2022/07/31 09:56:52;;;;;;;36.33;21.25;;;;;;;;;;5017913;28;20050;-78
2022/07/31 09:59:22;;;;;;;36.30;21.50;;;;;;;;;;5019331;28;20100;-77
2022/07/31 10:01:49;;;;;;;32.13;20.92;;;;;;;;;;5016074;28;20054;-78
2022/07/31 10:04:17;;;;;;;38.30;21.65;;;;;;;;;;5015914;28;20058;-78
2022/07/31 10:06:48;;;;;;;33.38;20.73;;;;;;;;;;5014939;28;20046;-78
2022/07/31 10:09:17;;;;;;;30.77;20.83;;;;;;;;;;5016427;28;20140;-78
2022/07/31 10:11:46;;;;;;;34.47;21.95;;;;;;;;;;5016944;28;20076;-77
2022/07/31 10:14:18;;;;;;;30.85;20.17;;;;;;;;;;5019128;28;20096;-78
2022/07/31 10:16:48;;;;;;;33.55;20.30;;;;;;;;;;5016239;28;20173;-78
2022/07/31 10:19:15;;;;;;;29.27;20.38;;;;;;;;;;5019679;28;20583;-79
2022/07/31 10:21:46;;;;;;;33.90;19.70;;;;;;;;;;5017747;28;20145;-78
2022/07/31 10:24:14;;;;;;;32.15;20.30;;;;;;;;;;5016778;28;20980;-80
2022/07/31 10:26:41;;;;;;;26.23;18.90;;;;;;;;;;5013109;28;20058;-79
2022/07/31 10:29:27;;;;;;;29.63;18.33;;;;;;;;;;5023651;28;20045;-79
2022/07/31 10:31:58;;;;;;;30.48;17.80;;;;;;;;;;5016851;28;20149;-79
2022/07/31 10:34:26;;;;;;;32.90;18.92;;;;;;;;;;5016303;28;20112;-77
2022/07/31 10:36:56;;;;;;;31.45;19.20;;;;;;;;;;5017985;28;20058;-78
2022/07/31 10:39:43;;;;;;;28.63;19.30;;;;;;;;;;5009906;28;20053;-78
2022/07/31 10:42:13;;;;;;;30.60;18.23;;;;;;;;;;5011099;28;20050;-79
2022/07/31 10:44:44;;;;;;;29.65;20.42;;;;;;;;;;5010071;28;20538;-78
2022/07/31 10:47:15;;;;;;;33.00;20.83;;;;;;;;;;5016277;28;20058;-78
2022/07/31 10:49:43;;;;;;;33.05;21.42;;;;;;;;;;5011820;28;20050;-77
2022/07/31 10:52:11;;;;;;;33.63;22.45;;;;;;;;;;5015185;28;20057;-78
2022/07/31 10:54:40;;;;;;;33.28;20.83;;;;;;;;;;5023635;28;20384;-79
2022/07/31 10:57:07;;;;;;;33.50;22.25;;;;;;;;;;5017054;28;20133;-79
2022/07/31 10:59:34;;;;;;;34.88;22.88;;;;;;;;;;5015148;28;20042;-78
2022/07/31 11:02:02;;;;;;;39.65;24.20;;;;;;;;;;5016753;28;20051;-77
2022/07/31 11:04:32;;;;;;;38.28;25.25;;;;;;;;;;5018481;28;20883;-78
2022/07/31 11:06:59;;;;;;;37.20;24.85;;;;;;;;;;5028503;28;20050;-78
2022/07/31 11:09:28;;;;;;;33.28;23.65;;;;;;;;;;5015563;28;20045;-78
2022/07/31 11:11:55;;;;;;;37.47;23.60;;;;;;;;;;5013578;28;20084;-78
2022/07/31 11:14:37;;;;;;;39.85;24.58;;;;;;;;;;5020727;28;20060;-77
2022/07/31 11:17:07;;;;;;;33.05;22.95;;;;;;;;;;5034532;28;20995;-77
2022/07/31 11:19:41;;;;;;;34.50;22.35;;;;;;;;;;5018013;28;20058;-79
2022/07/31 11:22:13;;;;;;;32.85;23.25;;;;;;;;;;5020436;28;20116;-78
2022/07/31 11:24:59;;;;;;;32.17;22.83;;;;;;;;;;5017000;28;20128;-78
2022/07/31 11:27:37;;;;;;;33.90;24.10;;;;;;;;;;5019022;28;20065;-80
2022/07/31 11:30:05;;;;;;;37.10;23.70;;;;;;;;;;5015638;28;20153;-78
2022/07/31 11:32:39;;;;;;;33.45;21.88;;;;;;;;;;5020765;28;20060;-78
2022/07/31 11:35:07;;;;;;;36.08;23.65;;;;;;;;;;5017903;28;20113;-78
2022/07/31 11:37:34;;;;;;;31.00;22.10;;;;;;;;;;5015111;28;20081;-78
2022/07/31 11:40:22;;;;;;;29.80;21.02;;;;;;;;;;5013296;28;20531;-77
2022/07/31 11:42:54;;;;;;;30.08;21.20;;;;;;;;;;5014156;28;20070;-77
2022/07/31 11:45:51;;;;;;;23.02;18.00;;;;;;;;;;5011634;28;20053;-78
2022/07/31 11:48:19;;;;;;;22.85;16.55;;;;;;;;;;5015384;28;20087;-78
2022/07/31 11:50:47;;;;;;;23.23;16.15;;;;;;;;;;5019676;28;20129;-78
2022/07/31 11:53:15;;;;;;;24.33;17.27;;;;;;;;;;5017019;28;20053;-77
2022/07/31 11:55:48;;;;;;;24.48;18.10;;;;;;;;;;5011110;28;20050;-78
2022/07/31 11:58:16;;;;;;;25.23;18.75;;;;;;;;;;5020540;28;20077;-78
2022/07/31 12:00:47;;;;;;;27.50;18.27;;;;;;;;;;5016733;28;20149;-78
2022/07/31 12:03:15;;;;;;;24.33;16.48;;;;;;;;;;5013633;28;20050;-77
2022/07/31 12:05:44;;;;;;;26.67;17.00;;;;;;;;;;5012887;28;21494;-77
2022/07/31 12:08:11;;;;;;;21.70;15.82;;;;;;;;;;5015635;28;20053;-78
2022/07/31 12:10:39;;;;;;;23.33;16.73;;;;;;;;;;5019178;28;20583;-79
2022/07/31 12:13:13;;;;;;;21.90;16.35;;;;;;;;;;5015087;28;20050;-79
2022/07/31 12:15:53;;;;;;;23.02;16.15;;;;;;;;;;5013756;28;20109;-79
2022/07/31 12:18:22;;;;;;;20.30;14.40;;;;;;;;;;5023420;28;20061;-78
2022/07/31 12:20:56;;;;;;;22.58;14.70;;;;;;;;;;5009949;28;20076;-78
2022/07/31 12:23:24;;;;;;;20.43;13.83;;;;;;;;;;5011123;28;20055;-78
2022/07/31 12:26:07;;;;;;;19.92;13.68;;;;;;;;;;5019171;28;20053;-80
2022/07/31 12:28:35;;;;;;;21.50;14.48;;;;;;;;;;5016081;28;20057;-78
2022/07/31 12:31:02;;;;;;;23.02;13.43;;;;;;;;;;5012841;28;20149;-77
2022/07/31 12:33:39;;;;;;;17.10;12.20;;;;;;;;;;5017853;28;20054;-79
2022/07/31 12:36:15;;;;;;;17.63;13.48;;;;;;;;;;5016946;28;20054;-78
2022/07/31 12:38:43;;;;;;;16.95;11.05;;;;;;;;;;5011592;28;20056;-78
2022/07/31 12:41:15;;;;;;;16.00;11.50;;;;;;;;;;5017591;28;20054;-77
2022/07/31 12:43:42;;;;;;;15.40;11.10;;;;;;;;;;5017830;28;20065;-78
2022/07/31 12:46:22;;;;;;;15.80;11.65;;;;;;;;;;5017204;28;20061;-78
2022/07/31 12:48:49;;;;;;;19.15;10.68;;;;;;;;;;5012932;28;20057;-78
2022/07/31 12:51:18;;;;;;;14.77;9.93;;;;;;;;;;5010559;28;20050;-78
2022/07/31 12:54:09;;;;;;;15.50;10.27;;;;;;;;;;5016915;28;20057;-77
2022/07/31 12:56:38;;;;;;;13.98;10.05;;;;;;;;;;5011420;28;20973;-79
2022/07/31 12:59:06;;;;;;;18.92;9.88;;;;;;;;;;5037826;28;20052;-78
2022/07/31 13:01:33;;;;;;;16.10;9.75;;;;;;;;;;5012268;28;20050;-78
2022/07/31 13:04:03;;;;;;;16.98;9.70;;;;;;;;;;5018909;28;20050;-77
2022/07/31 13:06:34;;;;;;;14.95;10.40;;;;;;;;;;5012653;28;20508;-79
2022/07/31 13:09:03;;;;;;;15.73;10.68;;;;;;;;;;5014790;28;20081;-78
2022/07/31 13:11:32;;;;;;;12.85;9.15;;;;;;;;;;5010569;28;20051;-79
2022/07/31 13:14:18;;;;;;;17.23;9.88;;;;;;;;;;5017064;28;20056;-78
2022/07/31 13:16:45;;;;;;;19.10;9.50;;;;;;;;;;5019487;28;20056;-78
2022/07/31 13:19:16;;;;;;;15.68;9.10;;;;;;;;;;5014073;28;20050;-79
2022/07/31 13:21:43;;;;;;;13.15;9.18;;;;;;;;;;5015737;28;20050;-78
2022/07/31 13:24:19;;;;;;;15.48;8.75;;;;;;;;;;5023927;28;20056;-77
2022/07/31 13:26:47;;;;;;;15.52;8.38;;;;;;;;;;5013604;28;20124;-78
2022/07/31 13:29:16;;;;;;;17.63;9.25;;;;;;;;;;5014753;28;20531;-79
2022/07/31 13:31:43;;;;;;;16.80;8.10;;;;;;;;;;5024619;28;20056;-77
2022/07/31 13:34:11;;;;;;;16.27;7.82;;;;;;;;;;5014329;28;20065;-78
2022/07/31 13:36:39;;;;;;;15.88;8.55;;;;;;;;;;5019671;28;20097;-79
2022/07/31 13:39:09;;;;;;;14.65;7.63;;;;;;;;;;5021793;28;20453;-79
2022/07/31 13:41:37;;;;;;;13.15;6.28;;;;;;;;;;5017722;28;20058;-79
2022/07/31 13:44:06;;;;;;;11.25;5.85;;;;;;;;;;5020303;28;20054;-78
2022/07/31 13:46:33;;;;;;;11.35;5.70;;;;;;;;;;5018172;28;21130;-78
2022/07/31 13:49:02;;;;;;;7.82;4.65;;;;;;;;;;5017236;28;20183;-78
2022/07/31 13:51:32;;;;;;;10.32;4.35;;;;;;;;;;5020581;28;20132;-78
2022/07/31 13:53:59;;;;;;;10.07;4.70;;;;;;;;;;5014385;28;20046;-77
2022/07/31 13:56:26;;;;;;;10.77;4.85;;;;;;;;;;5017298;28;20053;-78
2022/07/31 13:59:09;;;;;;;13.75;4.80;;;;;;;;;;5011871;28;21617;-76
2022/07/31 14:01:38;;;;;;;9.63;4.53;;;;;;;;;;5012041;28;20061;-77
2022/07/31 14:04:25;;;;;;;6.05;3.58;;;;;;;;;;5014722;28;20064;-77
2022/07/31 14:07:01;;;;;;;6.65;3.58;;;;;;;;;;5012690;28;20149;-78
2022/07/31 14:09:32;;;;;;;8.75;3.35;;;;;;;;;;5017958;28;20133;-76
2022/07/31 14:12:00;;;;;;;7.90;3.13;;;;;;;;;;5011321;28;20904;-76
2022/07/31 14:14:31;;;;;;;5.93;3.22;;;;;;;;;;5017564;28;20057;-77
2022/07/31 14:16:58;;;;;;;9.48;3.08;;;;;;;;;;5014238;28;20046;-76
2022/07/31 14:19:26;;;;;;;10.48;2.90;;;;;;;;;;5015903;28;20146;-76
2022/07/31 14:21:53;;;;;;;8.63;3.00;;;;;;;;;;5020622;28;20058;-76
2022/07/31 14:24:23;;;;;;;8.13;2.90;;;;;;;;;;5013941;28;20090;-76
2022/07/31 14:26:50;;;;;;;5.97;2.90;;;;;;;;;;5009037;28;20054;-77
2022/07/31 14:29:18;;;;;;;6.25;3.03;;;;;;;;;;5029962;28;20046;-76
2022/07/31 14:31:45;;;;;;;8.95;3.20;;;;;;;;;;5017619;28;20105;-76
2022/07/31 14:34:12;;;;;;;9.10;3.03;;;;;;;;;;5020934;28;20054;-77
2022/07/31 14:36:40;;;;;;;7.05;3.45;;;;;;;;;;5018230;28;20667;-76
2022/07/31 14:39:07;;;;;;;9.95;3.30;;;;;;;;;;5026422;28;20053;-76
2022/07/31 14:41:34;;;;;;;8.18;3.47;;;;;;;;;;5021218;28;20508;-76
2022/07/31 14:44:01;;;;;;;8.68;3.38;;;;;;;;;;5014653;28;20089;-76